Time;durP1;ratioP1;P1;durP2;ratioP2;P2;SDS_P1;SDS_P2;PMS_P1;PMS_P2;Temp;Humidity;BMP_temperature;BMP_pressure;BME280_temperature;BME280_humidity;BME280_pressure;Samples;Min_cycle;Max_cycle;Signal;HPM_P1;HPM_P2
2022/05/18 00:01:46;;;;;;;6.97;3.70;;;16.40;99.90;;;;;;4752391;30;20089;-91
2022/05/18 00:04:12;;;;;;;5.72;3.42;;;16.40;99.90;;;;;;4752473;30;20071;-92
2022/05/18 00:06:37;;;;;;;3.72;2.88;;;16.30;99.90;;;;;;4753721;29;20050;-91
2022/05/18 00:09:03;;;;;;;5.28;3.10;;;16.30;99.90;;;;;;4803682;29;20087;-90
2022/05/18 00:11:31;;;;;;;6.30;4.25;;;16.30;99.90;;;;;;4782454;29;20063;-91
2022/05/18 00:13:57;;;;;;;5.00;3.65;;;16.20;99.90;;;;;;4807923;29;20092;-91
2022/05/18 00:16:24;;;;;;;4.97;3.60;;;16.20;99.90;;;;;;4790554;29;20493;-91
2022/05/18 00:18:51;;;;;;;9.35;4.85;;;16.20;99.90;;;;;;4784783;29;20054;-92
2022/05/18 00:21:17;;;;;;;11.07;4.63;;;16.10;99.90;;;;;;4806874;29;20119;-91
2022/05/18 00:23:44;;;;;;;6.30;4.38;;;16.10;99.90;;;;;;4807232;29;20485;-91
2022/05/18 00:26:10;;;;;;;8.05;4.53;;;16.10;99.90;;;;;;4802476;29;20418;-91
2022/05/18 00:28:35;;;;;;;7.80;4.10;;;16.10;99.90;;;;;;4806816;29;20046;-91
2022/05/18 00:31:01;;;;;;;7.57;4.32;;;16.10;99.90;;;;;;4790874;29;20070;-90
2022/05/18 00:33:28;;;;;;;6.13;4.38;;;16.00;99.90;;;;;;4784102;29;20390;-91
2022/05/18 00:35:53;;;;;;;6.82;4.82;;;16.00;99.90;;;;;;4807050;29;20611;-92
2022/05/18 00:38:19;;;;;;;9.00;5.10;;;16.00;99.90;;;;;;4790361;29;20050;-92
2022/05/18 00:40:47;;;;;;;8.90;5.07;;;16.00;99.90;;;;;;4790952;29;20054;-90
2022/05/18 00:43:20;;;;;;;9.77;5.05;;;15.90;99.90;;;;;;4806917;29;20449;-92
2022/05/18 00:45:46;;;;;;;7.30;4.60;;;15.90;99.90;;;;;;4790058;29;20051;-91
2022/05/18 00:48:13;;;;;;;8.77;4.80;;;15.90;99.90;;;;;;4789107;30;20043;-92
2022/05/18 00:50:41;;;;;;;8.23;4.70;;;15.80;99.90;;;;;;4772965;30;20123;-92
2022/05/18 00:53:10;;;;;;;6.60;4.05;;;15.80;99.90;;;;;;4773616;30;20079;-91
2022/05/18 00:55:43;;;;;;;7.72;5.18;;;15.80;99.90;;;;;;4772595;30;20059;-92
2022/05/18 00:58:30;;;;;;;9.07;5.50;;;15.80;99.90;;;;;;4778225;30;20096;-90
2022/05/18 01:00:57;;;;;;;6.75;3.78;;;15.80;99.90;;;;;;4792663;29;20055;-91
2022/05/18 01:03:30;;;;;;;8.00;4.60;;;15.80;99.90;;;;;;4776293;30;20504;-91
2022/05/18 01:06:19;;;;;;;6.70;4.50;;;15.70;99.90;;;;;;4766310;30;20087;-92
2022/05/18 01:08:51;;;;;;;6.55;4.50;;;15.80;99.90;;;;;;4733471;30;20053;-92
2022/05/18 01:11:18;;;;;;;7.22;4.90;;;15.70;99.90;;;;;;4718824;30;20057;-90
2022/05/18 01:13:45;;;;;;;8.25;4.40;;;15.70;99.90;;;;;;4733846;30;20056;-89
2022/05/18 01:16:10;;;;;;;7.53;4.90;;;15.70;99.90;;;;;;4719160;30;20091;-90
2022/05/18 01:18:38;;;;;;;7.75;4.85;;;15.70;99.90;;;;;;4733041;30;20065;-91
2022/05/18 01:21:04;;;;;;;9.35;5.28;;;15.70;99.90;;;;;;4733422;30;20049;-92
2022/05/18 01:23:44;;;;;;;8.55;5.32;;;15.60;99.90;;;;;;4719046;30;20074;-91
2022/05/18 01:26:20;;;;;;;9.35;5.18;;;15.60;99.90;;;;;;4727789;30;20053;-91
2022/05/18 01:28:53;;;;;;;;;;;15.60;99.90;;;;;;4719970;30;20466;-90
2022/05/18 01:31:36;;;;;;;9.77;5.78;;;15.50;99.90;;;;;;4732590;30;19933;-90
2022/05/18 01:34:02;;;;;;;8.68;5.75;;;15.50;99.90;;;;;;4727791;30;20052;-91
2022/05/18 01:36:28;;;;;;;8.32;5.60;;;15.50;99.90;;;;;;4733603;30;20159;-91
2022/05/18 01:38:54;;;;;;;11.93;5.35;;;15.40;99.90;;;;;;4735271;30;20061;-92
2022/05/18 01:41:22;;;;;;;7.65;5.65;;;15.60;99.90;;;;;;4736539;30;20059;-92
2022/05/18 01:43:53;;;;;;;10.20;5.43;;;15.30;99.90;;;;;;4716273;30;20083;-90
2022/05/18 01:46:20;;;;;;;6.72;4.70;;;15.20;99.90;;;;;;4756040;30;20100;-92
2022/05/18 01:48:50;;;;;;;8.80;5.15;;;15.30;99.90;;;;;;4787653;29;20055;-91
2022/05/18 01:51:39;;;;;;;7.18;4.65;;;15.20;99.90;;;;;;4798813;29;20051;-91
2022/05/18 01:54:05;;;;;;;7.82;4.97;;;15.20;99.90;;;;;;4772100;30;20086;-92
2022/05/18 01:56:31;;;;;;;7.63;4.55;;;15.20;99.90;;;;;;4771301;30;20557;-92
2022/05/18 01:58:57;;;;;;;6.60;3.95;;;15.10;99.90;;;;;;4787613;30;20059;-88
2022/05/18 02:01:22;;;;;;;7.78;4.75;;;15.10;99.90;;;;;;4793030;29;20066;-92
2022/05/18 02:03:49;;;;;;;8.02;4.20;;;15.10;99.90;;;;;;4796847;29;20055;-90
2022/05/18 02:06:15;;;;;;;8.13;4.85;;;15.10;99.90;;;;;;4774904;30;20059;-89
2022/05/18 02:08:42;;;;;;;6.85;4.15;;;15.10;99.90;;;;;;4778105;30;20494;-86
2022/05/18 02:11:16;;;;;;;7.45;4.13;;;15.10;99.90;;;;;;4773837;29;20485;-85
2022/05/18 02:13:43;;;;;;;10.23;4.90;;;15.10;99.90;;;;;;4791732;29;20063;-87
2022/05/18 02:16:09;;;;;;;7.35;4.25;;;15.00;99.90;;;;;;4770894;30;20459;-86
2022/05/18 02:18:35;;;;;;;6.80;4.40;;;15.10;99.90;;;;;;4787154;29;20465;-87
2022/05/18 02:21:08;;;;;;;6.57;4.50;;;15.00;99.90;;;;;;4787666;29;20091;-88
2022/05/18 02:23:35;;;;;;;6.15;3.60;;;15.00;99.90;;;;;;4787203;30;20122;-91
2022/05/18 02:26:15;;;;;;;8.20;4.95;;;14.90;99.90;;;;;;4771608;30;20091;-87
2022/05/18 02:28:41;;;;;;;8.77;4.85;;;14.90;99.90;;;;;;4771529;30;20117;-87
2022/05/18 02:31:07;;;;;;;8.02;4.78;;;15.20;99.90;;;;;;4756734;30;20059;-88
2022/05/18 02:33:33;;;;;;;8.07;4.53;;;14.70;99.90;;;;;;4791730;29;20059;-90
2022/05/18 02:35:59;;;;;;;8.10;5.18;;;14.70;99.90;;;;;;4758890;30;20074;-88
2022/05/18 02:38:25;;;;;;;7.93;5.43;;;14.60;99.90;;;;;;4780919;30;20438;-91
2022/05/18 02:40:51;;;;;;;8.63;4.75;;;14.60;99.90;;;;;;4757361;30;20059;-91
2022/05/18 02:43:17;;;;;;;8.60;4.50;;;14.60;99.90;;;;;;4789189;30;20062;-91
2022/05/18 02:45:43;;;;;;;6.43;4.50;;;14.50;99.90;;;;;;4791064;29;20066;-91
2022/05/18 02:48:08;;;;;;;9.50;4.18;;;14.90;99.90;;;;;;4790493;30;20055;-90
2022/05/18 02:50:34;;;;;;;7.95;4.40;;;14.50;99.90;;;;;;4775575;29;20391;-92
2022/05/18 02:53:01;;;;;;;6.63;4.47;;;14.40;99.90;;;;;;4797631;29;20208;-87
2022/05/18 02:58:11;;;;;;;5.25;3.55;;;14.40;99.90;;;;;;4790745;30;20072;-90
2022/05/18 03:00:37;;;;;;;8.55;4.30;;;14.40;99.90;;;;;;4791660;29;20055;-90
2022/05/18 03:03:03;;;;;;;6.47;3.67;;;14.40;99.90;;;;;;4774437;30;20051;-90
2022/05/18 03:05:29;;;;;;;5.32;3.03;;;14.40;99.90;;;;;;4767810;30;20084;-91
2022/05/18 03:07:55;;;;;;;6.72;3.63;;;14.50;99.90;;;;;;4790703;30;20055;-87
2022/05/18 03:10:21;;;;;;;7.97;3.60;;;14.40;99.90;;;;;;4774754;29;20051;-90
2022/05/18 03:12:46;;;;;;;5.88;3.83;;;14.40;99.90;;;;;;4790913;30;20132;-89
2022/05/18 03:15:13;;;;;;;4.95;3.20;;;14.30;99.90;;;;;;4774578;30;20084;-90
2022/05/18 03:17:39;;;;;;;6.50;3.13;;;14.30;99.90;;;;;;4793868;29;20124;-89
2022/05/18 03:20:06;;;;;;;5.53;3.63;;;14.30;99.90;;;;;;4793815;29;20413;-90
2022/05/18 03:25:18;;;;;;;6.25;3.35;;;14.20;99.90;;;;;;4790220;30;20196;-92
2022/05/18 03:27:44;;;;;;;5.97;3.35;;;14.20;99.90;;;;;;4774543;30;20063;-90
2022/05/18 03:30:11;;;;;;;5.63;2.78;;;14.20;99.90;;;;;;4789937;29;20050;-91
2022/05/18 03:32:37;;;;;;;6.35;2.53;;;14.20;99.90;;;;;;4775225;30;20124;-92
2022/05/18 03:35:04;;;;;;;6.07;2.63;;;14.20;99.90;;;;;;4795955;29;20451;-90
2022/05/18 03:37:29;;;;;;;4.10;3.00;;;14.10;99.90;;;;;;4774316;30;20067;-89
2022/05/18 03:39:55;;;;;;;4.95;2.70;;;14.10;99.90;;;;;;4759175;30;20059;-89
2022/05/18 03:42:21;;;;;;;4.03;2.58;;;14.30;99.90;;;;;;4774300;30;20055;-91
2022/05/18 03:44:47;;;;;;;4.43;2.90;;;14.10;99.90;;;;;;4774477;29;20510;-90
2022/05/18 03:47:13;;;;;;;3.72;2.60;;;14.10;99.90;;;;;;4790871;29;20100;-92
2022/05/18 03:49:38;;;;;;;4.63;3.10;;;14.00;99.90;;;;;;4797217;29;20047;-89
2022/05/18 03:52:04;;;;;;;4.35;2.38;;;13.50;99.90;;;;;;4797079;29;20062;-91
2022/05/18 03:54:31;;;;;;;3.15;1.83;;;14.00;99.90;;;;;;4797033;29;20055;-88
2022/05/18 03:56:56;;;;;;;5.00;2.40;;;14.00;99.90;;;;;;4789939;30;20055;-90
2022/05/18 03:59:22;;;;;;;3.15;2.40;;;14.00;99.90;;;;;;4795906;29;20059;-89
2022/05/18 04:01:48;;;;;;;5.35;2.30;;;14.20;99.90;;;;;;4789431;30;20051;-88
2022/05/18 04:04:13;;;;;;;4.07;2.53;;;14.00;99.90;;;;;;4780819;30;20162;-89
2022/05/18 04:06:39;;;;;;;3.55;2.08;;;14.00;99.90;;;;;;4773126;30;20063;-91
2022/05/18 04:09:05;;;;;;;3.97;1.95;;;14.00;99.90;;;;;;4780777;30;20066;-87
2022/05/18 04:11:30;;;;;;;4.10;2.38;;;14.00;99.90;;;;;;4773648;30;20055;-88
2022/05/18 04:13:56;;;;;;;3.33;1.70;;;14.00;99.90;;;;;;4790061;29;20059;-88
2022/05/18 04:16:22;;;;;;;3.65;1.58;;;13.90;99.90;;;;;;4789171;29;20051;-88
2022/05/18 04:18:47;;;;;;;2.60;1.50;;;13.90;99.90;;;;;;4779876;29;20083;-88
2022/05/18 04:21:13;;;;;;;2.25;1.45;;;14.00;99.90;;;;;;4773371;30;20057;-89
2022/05/18 04:23:40;;;;;;;3.85;1.70;;;13.90;99.90;;;;;;4789946;29;20104;-90
2022/05/18 04:26:06;;;;;;;2.60;1.42;;;14.00;99.90;;;;;;4789487;30;20107;-87
2022/05/18 04:28:32;;;;;;;3.45;1.60;;;14.00;99.90;;;;;;4773148;30;20055;-90
2022/05/18 04:31:00;;;;;;;4.28;2.08;;;14.00;99.90;;;;;;4773364;30;20519;-86
2022/05/18 04:33:26;;;;;;;2.15;1.58;;;14.10;99.90;;;;;;4789375;30;20094;-88
2022/05/18 04:35:52;;;;;;;5.05;1.35;;;14.00;99.90;;;;;;4791818;29;20086;-90
2022/05/18 04:38:19;;;;;;;2.72;1.90;;;14.10;99.90;;;;;;4800857;29;20088;-86
2022/05/18 04:40:46;;;;;;;3.05;1.63;;;14.10;99.90;;;;;;4788776;30;20130;-93
2022/05/18 04:43:12;;;;;;;2.47;1.33;;;14.10;99.90;;;;;;4789213;30;20051;-88
2022/05/18 04:45:44;;;;;;;1.98;1.30;;;14.20;99.90;;;;;;4773360;30;20072;-89
2022/05/18 04:48:12;;;;;;;2.30;1.48;;;14.20;99.90;;;;;;4788682;29;20054;-90
2022/05/18 04:50:38;;;;;;;2.78;1.30;;;14.30;99.90;;;;;;4798405;29;20055;-89
2022/05/18 04:53:04;;;;;;;3.65;1.40;;;14.30;99.90;;;;;;4776840;29;20108;-89
2022/05/18 04:55:29;;;;;;;1.67;1.00;;;14.40;99.90;;;;;;4775269;30;20426;-89
2022/05/18 04:58:00;;;;;;;2.80;1.40;;;14.40;99.90;;;;;;4779874;30;20473;-89
2022/05/18 05:00:26;;;;;;;2.00;1.35;;;15.00;99.90;;;;;;4789178;30;20559;-91
2022/05/18 05:02:56;;;;;;;3.47;1.30;;;14.60;99.90;;;;;;4788495;30;20059;-90
2022/05/18 05:05:22;;;;;;;1.58;1.10;;;14.70;99.90;;;;;;4772513;29;20071;-90
2022/05/18 05:07:48;;;;;;;1.20;1.00;;;14.80;99.90;;;;;;4773377;29;20462;-91
2022/05/18 05:10:14;;;;;;;1.42;0.90;;;14.80;99.90;;;;;;4764028;30;20061;-89
2022/05/18 05:12:40;;;;;;;2.22;0.98;;;15.00;99.90;;;;;;4788410;30;20059;-89
2022/05/18 05:15:07;;;;;;;1.95;1.00;;;15.00;99.90;;;;;;4773146;30;20090;-89
2022/05/18 05:17:33;;;;;;;2.42;1.30;;;15.10;99.90;;;;;;4788665;30;20051;-91
2022/05/18 05:20:00;;;;;;;1.70;1.00;;;15.20;99.90;;;;;;4778806;29;20531;-89
2022/05/18 05:22:26;;;;;;;2.65;1.15;;;15.30;99.90;;;;;;4788732;30;20063;-90
2022/05/18 05:24:52;;;;;;;2.33;1.10;;;15.50;99.90;;;;;;4788965;29;20059;-89
2022/05/18 05:27:18;;;;;;;1.92;0.90;;;15.30;99.90;;;;;;4776084;29;20089;-89
2022/05/18 05:29:43;;;;;;;1.63;0.98;;;15.40;99.90;;;;;;4791215;29;20130;-89
2022/05/18 05:32:10;;;;;;;1.98;1.23;;;15.30;99.90;;;;;;4778703;30;21197;-88
2022/05/18 05:34:36;;;;;;;3.72;1.23;;;15.50;99.90;;;;;;4772525;30;20062;-90
2022/05/18 05:37:01;;;;;;;1.00;0.80;;;15.70;99.90;;;;;;4771629;30;20067;-90
2022/05/18 05:39:27;;;;;;;1.40;0.80;;;15.90;99.90;;;;;;4795397;29;20059;-88
2022/05/18 05:41:53;;;;;;;2.63;1.30;;;16.00;99.90;;;;;;4788363;29;20055;-88
2022/05/18 05:44:20;;;;;;;0.80;0.70;;;16.20;99.90;;;;;;4763481;30;20097;-90
2022/05/18 05:46:45;;;;;;;1.27;0.90;;;16.40;99.90;;;;;;4771729;30;20066;-87
2022/05/18 05:49:12;;;;;;;3.28;1.00;;;16.50;99.90;;;;;;4793662;29;20432;-88
2022/05/18 05:51:38;;;;;;;3.05;0.88;;;17.60;99.90;;;;;;4778862;30;20058;-89
2022/05/18 05:54:03;;;;;;;1.55;0.70;;;16.90;99.90;;;;;;4771723;29;20063;-89
2022/05/18 05:56:29;;;;;;;1.98;1.08;;;17.10;99.90;;;;;;4771953;30;20406;-89
2022/05/18 05:58:55;;;;;;;1.35;0.88;;;17.20;99.90;;;;;;4787909;30;20185;-89
2022/05/18 06:01:21;;;;;;;2.80;1.20;;;17.30;99.90;;;;;;4771896;30;20072;-90
2022/05/18 06:03:47;;;;;;;2.75;1.25;;;17.50;99.90;;;;;;4771939;30;20062;-88
2022/05/18 06:06:14;;;;;;;2.03;1.17;;;17.60;99.90;;;;;;4772178;30;20063;-91
2022/05/18 06:08:40;;;;;;;2.15;1.10;;;17.70;99.90;;;;;;4771948;30;20480;-90
2022/05/18 06:11:08;;;;;;;2.33;1.52;;;17.80;99.90;;;;;;4775285;30;20501;-88
2022/05/18 06:13:34;;;;;;;1.25;0.82;;;18.00;99.90;;;;;;4786183;30;20067;-86
2022/05/18 06:16:00;;;;;;;1.23;1.00;;;18.10;99.90;;;;;;4752959;30;20154;-83
2022/05/18 06:18:26;;;;;;;2.28;1.17;;;18.30;99.90;;;;;;4775716;30;20118;-85
2022/05/18 06:20:53;;;;;;;3.08;1.55;;;18.40;99.90;;;;;;4793190;29;20490;-84
2022/05/18 06:23:18;;;;;;;2.03;1.05;;;18.50;99.90;;;;;;4777450;29;20573;-84
2022/05/18 06:25:46;;;;;;;1.70;1.00;;;18.70;99.90;;;;;;4787891;29;20043;-85
2022/05/18 06:28:13;;;;;;;1.70;0.90;;;18.80;99.90;;;;;;4786863;30;20059;-85
2022/05/18 06:30:38;;;;;;;3.38;1.27;;;19.00;99.90;;;;;;4771077;30;20055;-85
2022/05/18 06:33:05;;;;;;;2.22;1.05;;;19.00;99.90;;;;;;4793532;29;20050;-87
2022/05/18 06:35:31;;;;;;;2.60;1.65;;;19.10;99.90;;;;;;4793654;29;20066;-85
2022/05/18 06:37:57;;;;;;;2.50;1.40;;;19.30;99.90;;;;;;4787020;30;20051;-82
2022/05/18 06:41:21;;;;;;;2.65;1.77;;;19.40;99.90;;;;;;4786718;30;20536;-84
2022/05/18 06:43:08;;;;;;;;;;;19.60;99.90;;;;;;4786534;29;20054;-83
2022/05/18 06:45:34;;;;;;;;;;;19.70;99.90;;;;;;4794077;29;20379;-84
2022/05/18 06:48:00;;;;;;;1.52;1.27;;;19.90;99.90;;;;;;4787083;30;19926;-84
2022/05/18 06:50:27;;;;;;;3.67;1.40;;;20.00;99.90;;;;;;4786686;29;20478;-83
2022/05/18 06:52:52;;;;;;;2.25;1.17;;;20.10;99.90;;;;;;4777959;30;20134;-83
2022/05/18 06:55:18;;;;;;;2.13;1.38;;;20.30;99.90;;;;;;4786595;30;20077;-85
2022/05/18 06:57:44;;;;;;;3.80;2.20;;;20.40;99.90;;;;;;4789770;29;20067;-87
2022/05/18 07:00:10;;;;;;;3.60;2.17;;;20.60;99.90;;;;;;4786535;30;20117;-86
2022/05/18 07:02:36;;;;;;;2.67;1.58;;;20.70;99.90;;;;;;4778136;30;20066;-86
2022/05/18 07:05:02;;;;;;;3.70;1.35;;;20.90;99.90;;;;;;4770672;30;20052;-87
2022/05/18 07:07:27;;;;;;;2.25;1.58;;;21.00;99.90;;;;;;4771134;30;20089;-88
2022/05/18 07:09:53;;;;;;;2.35;1.23;;;21.10;99.90;;;;;;4770698;30;20224;-84
2022/05/18 07:12:19;;;;;;;4.53;1.85;;;21.30;99.90;;;;;;4793773;29;20051;-91
2022/05/18 07:14:44;;;;;;;2.28;1.20;;;21.40;99.90;;;;;;4793568;29;20062;-86
2022/05/18 07:17:10;;;;;;;2.53;1.58;;;21.60;99.90;;;;;;4777013;29;20417;-85
2022/05/18 07:19:35;;;;;;;2.88;1.60;;;21.80;99.90;;;;;;4787684;29;20055;-86
2022/05/18 07:22:03;;;;;;;2.72;1.75;;;21.90;99.90;;;;;;4786630;30;20051;-85
2022/05/18 07:24:29;;;;;;;2.72;1.55;;;22.10;99.90;;;;;;4770914;30;20055;-91
2022/05/18 07:26:55;;;;;;;3.65;1.75;;;22.30;99.90;;;;;;4787786;30;20126;-91
2022/05/18 07:29:20;;;;;;;1.92;1.40;;;22.40;99.90;;;;;;4788196;29;20057;-89
2022/05/18 07:34:30;;;;;;;2.47;1.70;;;22.70;99.90;;;;;;4794827;29;20097;-86
2022/05/18 07:36:56;;;;;;;5.78;2.58;;;22.90;99.90;;;;;;4760553;30;20091;-91
2022/05/18 07:39:23;;;;;;;4.88;2.33;;;23.10;99.90;;;;;;4775987;30;20078;-89
2022/05/18 07:41:49;;;;;;;4.63;1.83;;;23.20;99.90;;;;;;4805390;29;20053;-89
2022/05/18 07:44:15;;;;;;;4.68;2.15;;;23.30;99.90;;;;;;4782496;30;20460;-91
2022/05/18 07:46:40;;;;;;;3.17;1.70;;;23.50;99.90;;;;;;4777312;29;20098;-91
2022/05/18 07:49:07;;;;;;;5.63;1.90;;;23.60;99.90;;;;;;4796506;29;20047;-90
2022/05/18 07:51:33;;;;;;;3.92;1.73;;;23.70;99.90;;;;;;4799249;29;20087;-91
2022/05/18 07:54:01;;;;;;;3.95;1.80;;;23.90;99.90;;;;;;4785323;29;20478;-90
2022/05/18 07:56:27;;;;;;;4.03;1.55;;;24.10;99.90;;;;;;4793286;29;20066;-90
2022/05/18 07:58:59;;;;;;;3.53;2.08;;;24.10;99.90;;;;;;4781808;29;20118;-91
2022/05/18 08:01:36;;;;;;;3.45;2.00;;;24.20;99.90;;;;;;4781097;30;20055;-90
2022/05/18 08:07:54;;;;;;;3.42;1.50;;;24.30;99.90;;;;;;4788416;30;20046;-91
2022/05/18 08:15:50;;;;;;;3.90;2.03;;;24.90;99.90;;;;;;4773926;30;20059;-90
2022/05/18 08:18:17;;;;;;;9.07;2.22;;;25.00;99.90;;;;;;4802618;29;20055;-86
2022/05/18 08:20:44;;;;;;;4.78;1.75;;;25.20;99.90;;;;;;4791860;29;20069;-89
2022/05/18 08:23:10;;;;;;;2.80;1.35;;;25.30;99.90;;;;;;4808352;29;20096;-89
2022/05/18 08:25:36;;;;;;;3.45;1.40;;;25.50;99.90;;;;;;4808564;29;20089;-88
2022/05/18 08:28:03;;;;;;;3.03;1.10;;;25.60;99.90;;;;;;4792809;29;20063;-90
2022/05/18 08:30:30;;;;;;;2.67;0.93;;;25.80;99.90;;;;;;4792322;29;20066;-91
2022/05/18 08:33:01;;;;;;;2.55;1.00;;;26.00;99.70;;;;;;4808306;29;20200;-87
2022/05/18 08:35:27;;;;;;;2.20;1.13;;;26.00;95.70;;;;;;4808579;29;20111;-87
2022/05/18 08:37:53;;;;;;;2.42;1.00;;;26.20;98.70;;;;;;4792779;29;20051;-87
2022/05/18 08:40:28;;;;;;;2.38;0.80;;;26.30;96.10;;;;;;4792232;29;20150;-85
2022/05/18 08:43:00;;;;;;;2.47;1.00;;;26.40;94.60;;;;;;4809199;29;20150;-89
2022/05/18 08:45:30;;;;;;;2.28;0.88;;;26.60;94.30;;;;;;4808920;29;20051;-92
2022/05/18 08:48:06;;;;;;;2.72;1.00;;;26.50;91.70;;;;;;4809346;29;20050;-88
2022/05/18 08:50:33;;;;;;;2.55;1.17;;;26.80;93.50;;;;;;4808864;29;20421;-86
2022/05/18 08:53:08;;;;;;;2.90;0.80;;;26.90;93.90;;;;;;4792781;29;20110;-88
2022/05/18 08:55:53;;;;;;;2.85;0.75;;;27.10;93.70;;;;;;4808177;29;20059;-90
2022/05/18 08:58:41;;;;;;;2.83;0.77;;;27.30;94.00;;;;;;4792369;29;20055;-90
2022/05/18 09:01:15;;;;;;;4.20;1.25;;;27.50;91.70;;;;;;4808016;29;20120;-90
2022/05/18 09:03:49;;;;;;;2.72;1.02;;;27.60;89.90;;;;;;4792111;29;20115;-87
2022/05/18 09:06:53;;;;;;;2.28;1.20;;;27.70;91.50;;;;;;4808006;29;20065;-87
2022/05/18 09:12:25;;;;;;;2.28;0.80;;;28.10;90.10;;;;;;4809032;29;20046;-87
2022/05/18 09:14:52;;;;;;;1.85;0.60;;;28.00;82.60;;;;;;4793659;29;20649;-88
2022/05/18 09:17:55;;;;;;;1.65;0.77;;;28.20;83.50;;;;;;4807148;29;20148;-86
2022/05/18 09:20:42;;;;;;;2.65;0.80;;;28.20;76.40;;;;;;4807459;29;20446;-90
2022/05/18 09:23:30;;;;;;;1.33;0.60;;;28.30;75.70;;;;;;4807473;29;20084;-88
2022/05/18 09:26:23;;;;;;;1.65;0.70;;;28.40;80.00;;;;;;4807587;29;20055;-88
2022/05/18 09:28:56;;;;;;;1.40;0.65;;;28.40;75.20;;;;;;4807789;29;20061;-87
2022/05/18 09:31:41;;;;;;;0.98;0.50;;;28.50;75.20;;;;;;4807952;29;20062;-91
2022/05/18 09:34:43;;;;;;;2.70;0.63;;;28.60;74.20;;;;;;4807710;29;20078;-88
2022/05/18 09:37:15;;;;;;;2.55;0.80;;;28.60;72.50;;;;;;4808041;29;20050;-86
2022/05/18 09:39:46;;;;;;;1.67;0.70;;;28.80;74.20;;;;;;4808101;29;20180;-88
2022/05/18 09:42:16;;;;;;;2.78;1.13;;;29.00;78.00;;;;;;4791167;29;20062;-89
2022/05/18 09:45:08;;;;;;;4.32;1.00;;;28.80;71.60;;;;;;4807923;29;20137;-89
2022/05/18 09:47:45;;;;;;;1.92;0.73;;;28.90;75.60;;;;;;4798305;29;20096;-87
2022/05/18 09:50:11;;;;;;;1.85;1.10;;;29.10;79.80;;;;;;4807738;29;20090;-87
2022/05/18 09:52:39;;;;;;;2.83;0.80;;;29.30;77.70;;;;;;4807588;29;20062;-89
2022/05/18 09:55:08;;;;;;;3.72;0.85;;;29.40;77.80;;;;;;4807678;29;20132;-88
2022/05/18 09:57:58;;;;;;;3.42;1.20;;;29.60;76.50;;;;;;4791896;29;20058;-92
2022/05/18 10:00:26;;;;;;;1.35;0.70;;;29.60;76.50;;;;;;4808078;29;20062;-86
2022/05/18 10:08:44;;;;;;;1.60;0.82;;;29.90;71.00;;;;;;4807182;29;20069;-86
2022/05/18 10:11:16;;;;;;;3.33;0.98;;;30.10;73.80;;;;;;4806586;29;20061;-87
2022/05/18 10:14:00;;;;;;;2.80;1.00;;;30.20;74.30;;;;;;4790504;29;20063;-87
2022/05/18 10:16:50;;;;;;;2.88;1.15;;;30.30;72.60;;;;;;4790235;29;20068;-87
2022/05/18 10:19:33;;;;;;;3.83;1.02;;;30.30;71.20;;;;;;4806654;29;20133;-87
2022/05/18 10:22:03;;;;;;;2.75;1.05;;;30.20;70.80;;;;;;4790803;29;20102;-86
2022/05/18 10:24:34;;;;;;;3.90;0.98;;;30.30;71.90;;;;;;4790433;29;20490;-86
2022/05/18 10:27:31;;;;;;;3.08;0.80;;;30.30;71.30;;;;;;4806746;29;20053;-86
2022/05/18 10:30:15;;;;;;;1.88;0.90;;;30.40;71.90;;;;;;4789415;29;20142;-89
2022/05/18 10:33:16;;;;;;;2.13;0.80;;;30.50;71.30;;;;;;4806728;29;20065;-85
2022/05/18 10:35:44;;;;;;;5.63;1.27;;;30.70;70.70;;;;;;4806262;29;20055;-90
2022/05/18 10:38:15;;;;;;;3.20;1.40;;;30.80;71.70;;;;;;4807009;29;20142;-86
2022/05/18 10:40:41;;;;;;;3.83;1.30;;;31.10;70.90;;;;;;4807290;29;20119;-87
2022/05/18 10:43:33;;;;;;;3.67;1.50;;;31.10;70.80;;;;;;4807193;29;20058;-88
2022/05/18 10:46:08;;;;;;;2.03;1.02;;;31.20;70.40;;;;;;4806361;29;20097;-86
2022/05/18 10:48:35;;;;;;;3.67;1.52;;;31.20;68.00;;;;;;4806509;29;20497;-90
2022/05/18 10:51:07;;;;;;;6.97;3.05;;;31.40;69.90;;;;;;4806739;29;20051;-87
2022/05/18 10:53:44;;;;;;;6.78;2.40;;;31.50;69.60;;;;;;4807263;29;20062;-86
2022/05/18 10:56:13;;;;;;;4.90;1.83;;;31.70;66.70;;;;;;4806223;29;20086;-88
2022/05/18 10:58:39;;;;;;;4.05;1.55;;;31.70;65.90;;;;;;4789274;29;20501;-90
2022/05/18 11:01:13;;;;;;;4.28;1.80;;;31.20;66.60;;;;;;4806389;29;20111;-87
2022/05/18 11:03:53;;;;;;;2.78;1.30;;;31.10;65.60;;;;;;4792035;29;20051;-86
2022/05/18 11:06:29;;;;;;;2.35;1.25;;;31.10;67.80;;;;;;4811238;29;20059;-88
2022/05/18 11:09:27;;;;;;;4.38;1.30;;;31.00;68.90;;;;;;4811615;29;20050;-88
2022/05/18 11:12:15;;;;;;;2.35;1.30;;;31.00;69.20;;;;;;4810399;29;20054;-87
2022/05/18 11:14:55;;;;;;;2.53;1.10;;;31.10;70.10;;;;;;4811812;29;20421;-87
2022/05/18 11:17:39;;;;;;;6.28;1.55;;;31.30;70.20;;;;;;4812224;29;20062;-89
2022/05/18 11:20:31;;;;;;;3.47;1.15;;;31.60;69.70;;;;;;4812240;29;20065;-89
2022/05/18 11:23:05;;;;;;;3.85;1.60;;;31.60;66.60;;;;;;4810323;29;20062;-86
2022/05/18 11:25:57;;;;;;;4.43;1.40;;;31.60;67.70;;;;;;4809501;29;20054;-86
2022/05/18 11:28:51;;;;;;;2.70;1.17;;;31.50;70.40;;;;;;4809740;29;20047;-86
2022/05/18 11:31:38;;;;;;;4.13;1.70;;;31.60;65.90;;;;;;4809200;29;20146;-89
2022/05/18 11:34:37;;;;;;;3.17;1.30;;;31.60;68.90;;;;;;4809716;29;20047;-90
2022/05/18 11:37:18;;;;;;;3.38;1.42;;;31.80;70.70;;;;;;4809242;29;20501;-86
2022/05/18 11:40:13;;;;;;;6.93;3.13;;;31.80;66.70;;;;;;4792949;29;20405;-87
2022/05/18 11:42:50;;;;;;;2.33;1.40;;;32.10;69.50;;;;;;4767165;30;20093;-90
2022/05/18 11:45:48;;;;;;;6.38;3.30;;;32.20;70.40;;;;;;4771875;29;20161;-89
2022/05/18 11:48:36;;;;;;;3.92;1.40;;;32.50;68.70;;;;;;4792572;29;20055;-91
2022/05/18 11:51:11;;;;;;;4.78;1.50;;;32.30;70.30;;;;;;4770364;30;20097;-88
2022/05/18 11:54:17;;;;;;;2.40;1.20;;;32.40;70.30;;;;;;4795805;29;20137;-90
2022/05/18 11:57:33;;;;;;;3.58;1.50;;;32.50;69.90;;;;;;4752164;30;20068;-94
2022/05/18 12:15:22;;;;;;;4.82;2.03;;;32.80;67.30;;;;;;4781277;30;20058;-89
2022/05/18 12:18:52;;;;;;;2.67;1.48;;;32.90;67.40;;;;;;4890944;24;20147;-88
2022/05/18 12:22:25;;;;;;;3.13;1.80;;;32.50;67.10;;;;;;4715882;30;20073;-89
2022/05/18 12:24:55;;;;;;;3.88;1.40;;;32.30;68.00;;;;;;4698556;30;20072;-89
2022/05/18 12:27:23;;;;;;;3.13;1.58;;;32.00;68.60;;;;;;4717328;30;20573;-91
2022/05/18 12:29:53;;;;;;;3.00;1.85;;;32.00;68.80;;;;;;4702182;30;20060;-86
2022/05/18 12:32:20;;;;;;;5.43;3.78;;;32.00;67.90;;;;;;4702541;30;20091;-84
2022/05/18 12:35:15;;;;;;;11.75;5.10;;;31.70;70.40;;;;;;4700522;30;20144;-85
2022/05/18 12:37:51;;;;;;;10.00;5.90;;;31.30;71.50;;;;;;4696015;30;20060;-85
2022/05/18 12:40:29;;;;;;;10.77;4.57;;;31.00;72.20;;;;;;4701338;30;20332;-87
2022/05/18 12:43:21;;;;;;;7.72;4.00;;;30.50;74.20;;;;;;4716323;30;20064;-87
2022/05/18 12:45:48;;;;;;;7.70;5.15;;;30.10;77.80;;;;;;4710930;30;20554;-87
2022/05/18 12:48:31;;;;;;;8.77;5.32;;;30.20;75.90;;;;;;4699549;30;20142;-86
2022/05/18 12:51:20;;;;;;;11.20;6.55;;;29.90;77.70;;;;;;4696591;30;20065;-89
2022/05/18 12:53:49;;;;;;;13.32;5.82;;;29.60;79.00;;;;;;4701270;30;20064;-89
2022/05/18 12:56:25;;;;;;;11.65;8.05;;;29.20;81.50;;;;;;4699307;30;20073;-86
2022/05/18 12:58:56;;;;;;;18.17;10.27;;;29.10;82.20;;;;;;4742158;30;20095;-86
2022/05/18 13:01:28;;;;;;;13.05;7.82;;;28.90;82.60;;;;;;4754910;30;20060;-88
2022/05/18 13:04:00;;;;;;;12.07;6.60;;;28.50;85.70;;;;;;4770670;30;20059;-88
2022/05/18 13:06:29;;;;;;;11.73;7.00;;;28.20;88.10;;;;;;4755022;30;20117;-88
2022/05/18 13:09:00;;;;;;;13.95;9.63;;;28.30;90.90;;;;;;4771254;30;20056;-88
2022/05/18 13:11:32;;;;;;;21.13;10.63;;;28.00;92.00;;;;;;4771238;30;20515;-89
2022/05/18 13:14:00;;;;;;;16.63;9.35;;;28.20;90.80;;;;;;4755120;30;20059;-87
2022/05/18 13:16:38;;;;;;;14.52;8.90;;;28.40;87.50;;;;;;4771086;30;20407;-89
2022/05/18 13:19:14;;;;;;;20.50;11.00;;;28.30;87.70;;;;;;4761114;29;20051;-87
2022/05/18 13:21:52;;;;;;;20.42;10.27;;;28.30;88.50;;;;;;4788720;29;20051;-87
2022/05/18 13:24:21;;;;;;;14.73;9.93;;;28.60;83.40;;;;;;4788662;29;20051;-88
2022/05/18 13:26:49;;;;;;;18.15;8.82;;;27.80;86.00;;;;;;4771944;30;20063;-88
2022/05/18 13:29:23;;;;;;;15.10;7.90;;;27.60;89.30;;;;;;4772393;30;20055;-88
2022/05/18 13:31:57;;;;;;;17.23;8.63;;;27.50;91.10;;;;;;4788607;29;20138;-88
2022/05/18 13:34:39;;;;;;;16.15;9.13;;;27.20;92.40;;;;;;4772785;30;20574;-89
2022/05/18 13:37:07;;;;;;;13.95;8.27;;;27.40;92.20;;;;;;4789181;29;20090;-89
2022/05/18 13:39:44;;;;;;;11.73;6.95;;;27.40;91.30;;;;;;4757997;30;20466;-90
2022/05/18 13:42:14;;;;;;;13.52;6.55;;;27.40;93.60;;;;;;4772304;29;20520;-87
2022/05/18 13:44:41;;;;;;;11.48;5.82;;;27.40;94.40;;;;;;4772379;30;20070;-87
2022/05/18 13:47:12;;;;;;;14.02;7.03;;;27.40;94.10;;;;;;4772122;30;20098;-88
2022/05/18 13:49:40;;;;;;;17.15;7.22;;;27.70;93.90;;;;;;4772003;30;20063;-88